createdAt,value
2023-03-07T00:00:13.421Z,99517.31
2023-03-07T00:02:42.072Z,99513.97
2023-03-07T00:05:12.610Z,99516.50
2023-03-07T00:07:43.455Z,99511.06
2023-03-07T00:10:12.867Z,99504.31
2023-03-07T00:12:41.059Z,99501.81
2023-03-07T00:15:10.462Z,99503.38
2023-03-07T00:17:39.339Z,99497.19
2023-03-07T00:20:11.221Z,99506.81
2023-03-07T00:22:39.562Z,99488.47
2023-03-07T00:25:10.519Z,99490.56
2023-03-07T00:27:38.839Z,99496.50
2023-03-07T00:30:08.090Z,99498.78
2023-03-07T00:32:36.345Z,99489.69
2023-03-07T00:35:04.831Z,99496.59
2023-03-07T00:37:33.049Z,99493.78
2023-03-07T00:40:01.322Z,99493.00
2023-03-07T00:42:31.049Z,99499.22
2023-03-07T00:44:59.181Z,99488.91
2023-03-07T00:47:27.969Z,99489.66
2023-03-07T00:49:56.748Z,99474.97
2023-03-07T00:52:24.979Z,99474.78
2023-03-07T00:54:53.470Z,99475.75
2023-03-07T00:57:21.880Z,99482.13
2023-03-07T00:59:51.461Z,99473.06
2023-03-07T01:02:20.143Z,99478.53
2023-03-07T01:04:48.497Z,99482.16
2023-03-07T01:07:17.174Z,99484.78
2023-03-07T01:09:47.250Z,99484.09
2023-03-07T01:12:16.381Z,99473.28
2023-03-07T01:14:44.519Z,99466.91
2023-03-07T01:17:14.004Z,99455.47
2023-03-07T01:19:41.880Z,99456.50
2023-03-07T01:22:09.976Z,99455.00
2023-03-07T01:24:38.108Z,99456.53
2023-03-07T01:27:06.718Z,99450.47
2023-03-07T01:29:34.926Z,99447.44
2023-03-07T01:32:03.466Z,99449.63
2023-03-07T01:34:33.593Z,99447.72
2023-03-07T01:37:01.955Z,99445.19
2023-03-07T01:39:31.010Z,99440.78
2023-03-07T01:42:03.686Z,99438.41
2023-03-07T01:44:52.555Z,99448.72
2023-03-07T01:47:20.878Z,99438.25
2023-03-07T01:49:56.626Z,99442.09
2023-03-07T01:52:29.394Z,99430.44
2023-03-07T01:55:04.456Z,99432.47
2023-03-07T01:57:35.697Z,99421.25
2023-03-07T02:00:10.864Z,99431.31
2023-03-07T02:02:44.975Z,99417.84
2023-03-07T02:05:23.423Z,99425.09
2023-03-07T02:07:53.852Z,99434.00
2023-03-07T02:10:27.688Z,99406.25
2023-03-07T02:12:56.270Z,99404.63
2023-03-07T02:15:24.703Z,99409.72
2023-03-07T02:17:53.740Z,99408.69
2023-03-07T02:20:37.463Z,99398.97
2023-03-07T02:23:13.641Z,99398.09
2023-03-07T02:25:46.145Z,99411.59
2023-03-07T02:28:19.214Z,99402.16
2023-03-07T02:30:56.560Z,99399.47
2023-03-07T02:33:25.960Z,99400.13
2023-03-07T02:36:06.951Z,99396.94
2023-03-07T02:38:42.635Z,99386.53
2023-03-07T02:41:13.417Z,99384.66
2023-03-07T02:43:43.751Z,99382.06
2023-03-07T02:46:12.873Z,99387.78
2023-03-07T02:48:41.708Z,99387.59
2023-03-07T02:51:10.289Z,99383.84
2023-03-07T02:53:39.462Z,99387.97
2023-03-07T02:56:08.478Z,99384.03
2023-03-07T02:58:36.587Z,99388.00
2023-03-07T03:01:06.684Z,99383.84
2023-03-07T03:03:34.857Z,99386.59
2023-03-07T03:06:04.079Z,99373.25
2023-03-07T03:08:33.194Z,99388.81
2023-03-07T03:11:01.859Z,99374.50
2023-03-07T03:13:30.958Z,99373.78
2023-03-07T03:15:59.940Z,99381.38
2023-03-07T03:18:31.105Z,99383.47
2023-03-07T03:21:01.391Z,99384.34
2023-03-07T03:23:29.763Z,99382.00
2023-03-07T03:26:00.149Z,99370.88
2023-03-07T03:28:31.650Z,99380.28
2023-03-07T03:31:01.423Z,99375.88
2023-03-07T03:33:33.089Z,99375.44
2023-03-07T03:36:06.514Z,99391.72
2023-03-07T03:38:36.068Z,99366.63
2023-03-07T03:41:08.341Z,99379.50
2023-03-07T03:43:38.845Z,99372.06
2023-03-07T03:46:08.032Z,99371.97
2023-03-07T03:48:39.369Z,99367.91
2023-03-07T03:51:10.555Z,99376.50
2023-03-07T03:53:40.711Z,99375.94
2023-03-07T03:56:12.551Z,99385.03
2023-03-07T03:58:42.085Z,99379.41
2023-03-07T04:01:13.149Z,99380.53
2023-03-07T04:03:44.962Z,99382.56
2023-03-07T04:06:15.736Z,99396.94
2023-03-07T04:08:44.512Z,99381.25
2023-03-07T04:11:13.575Z,99400.06
2023-03-07T04:13:41.903Z,99385.75
2023-03-07T04:16:10.482Z,99383.69
2023-03-07T04:18:40.212Z,99388.28
2023-03-07T04:21:11.031Z,99381.09
2023-03-07T04:23:40.007Z,99384.06
2023-03-07T04:26:09.523Z,99381.75
2023-03-07T04:28:46.393Z,99381.47
2023-03-07T04:31:21.114Z,99381.97
2023-03-07T04:33:50.334Z,99380.25
2023-03-07T04:36:20.572Z,99376.81
2023-03-07T04:38:50.120Z,99378.72
2023-03-07T04:41:21.206Z,99371.00
2023-03-07T04:43:52.596Z,99368.94
2023-03-07T04:46:21.859Z,99372.00
2023-03-07T04:48:50.602Z,99369.16
2023-03-07T04:51:20.808Z,99370.06
2023-03-07T04:53:50.787Z,99365.31
2023-03-07T04:56:19.300Z,99380.16
2023-03-07T04:58:48.967Z,99372.06
2023-03-07T05:01:19.789Z,99387.44
2023-03-07T05:03:49.075Z,99379.59
2023-03-07T05:06:20.580Z,99379.78
2023-03-07T05:08:51.621Z,99393.44
2023-03-07T05:11:19.987Z,99386.28
2023-03-07T05:13:48.784Z,99390.00
2023-03-07T05:16:20.483Z,99402.00
2023-03-07T05:18:49.740Z,99392.53
2023-03-07T05:21:18.276Z,99393.47
2023-03-07T05:23:47.974Z,99385.09
2023-03-07T05:26:16.586Z,99385.81
2023-03-07T05:28:44.836Z,99387.31
2023-03-07T05:31:13.302Z,99386.78
2023-03-07T05:33:42.769Z,99390.91
2023-03-07T05:36:13.400Z,99389.84
2023-03-07T05:38:44.902Z,99377.59
2023-03-07T05:41:14.711Z,99383.41
2023-03-07T05:43:44.990Z,99388.34
2023-03-07T05:46:13.672Z,99413.53
2023-03-07T05:48:41.980Z,99396.00
2023-03-07T05:51:10.591Z,99389.09
2023-03-07T05:53:38.953Z,99396.00
2023-03-07T05:56:08.921Z,99402.38
2023-03-07T05:58:39.836Z,99409.03
2023-03-07T06:01:10.320Z,99403.41
2023-03-07T06:03:38.690Z,99410.72
2023-03-07T06:06:08.545Z,99411.84
2023-03-07T06:08:36.620Z,99421.88
2023-03-07T06:11:06.930Z,99419.75
2023-03-07T06:13:40.207Z,99423.41
2023-03-07T06:16:10.301Z,99412.22
2023-03-07T06:18:41.315Z,99414.41
2023-03-07T06:21:11.673Z,99402.69
2023-03-07T06:23:44.539Z,99404.94
2023-03-07T06:26:15.997Z,99397.84
2023-03-07T06:28:49.366Z,99404.22
2023-03-07T06:31:20.342Z,99398.56
2023-03-07T06:33:50.552Z,99402.66
2023-03-07T06:36:21.804Z,99406.53
2023-03-07T06:38:57.280Z,99407.22
2023-03-07T06:43:43.045Z,99405.22
2023-03-07T06:46:12.068Z,99418.09
2023-03-07T06:48:43.774Z,99415.25
2023-03-07T06:51:17.544Z,99421.06
2023-03-07T06:53:48.595Z,99423.31
2023-03-07T06:56:18.030Z,99421.56
2023-03-07T06:58:48.736Z,99428.69
2023-03-07T07:01:20.107Z,99428.13
2023-03-07T07:03:52.711Z,99426.97
2023-03-07T07:06:22.021Z,99427.09
2023-03-07T07:08:55.596Z,99434.81
2023-03-07T07:11:26.625Z,99435.50
2023-03-07T07:13:57.639Z,99436.22
2023-03-07T07:16:26.321Z,99435.91
2023-03-07T07:18:55.137Z,99445.16
2023-03-07T07:21:24.110Z,99439.84
2023-03-07T07:23:53.635Z,99440.94
2023-03-07T07:26:22.530Z,99442.16
2023-03-07T07:28:52.034Z,99445.28
2023-03-07T07:31:23.112Z,99443.25
2023-03-07T07:33:52.338Z,99440.66
2023-03-07T07:36:24.747Z,99450.66
2023-03-07T07:38:55.908Z,99457.44
2023-03-07T07:41:25.374Z,99449.28
2023-03-07T07:43:57.867Z,99449.13
2023-03-07T07:46:38.536Z,99460.53
2023-03-07T07:49:10.055Z,99455.16
2023-03-07T07:51:41.239Z,99465.97
2023-03-07T07:54:10.918Z,99463.34
2023-03-07T07:56:40.106Z,99460.38
2023-03-07T07:59:09.616Z,99471.38
2023-03-07T08:01:40.310Z,99468.22
2023-03-07T08:04:10.161Z,99472.44
2023-03-07T08:06:41.513Z,99460.28
2023-03-07T08:09:10.100Z,99464.13
2023-03-07T08:11:38.524Z,99467.34
2023-03-07T08:14:09.433Z,99466.81
2023-03-07T08:16:40.913Z,99471.78
2023-03-07T08:19:10.868Z,99468.09
2023-03-07T08:21:39.367Z,99486.78
2023-03-07T08:24:08.935Z,99485.44
2023-03-07T08:26:38.990Z,99480.81
2023-03-07T08:29:09.362Z,99490.88
2023-03-07T08:31:40.260Z,99500.66
2023-03-07T08:34:08.887Z,99513.88
2023-03-07T08:36:37.019Z,99520.31
2023-03-07T08:39:06.421Z,99502.72
2023-03-07T08:41:34.893Z,99504.22
2023-03-07T08:44:04.220Z,99507.81
2023-03-07T08:46:32.412Z,99500.34
2023-03-07T08:49:02.372Z,99500.28
2023-03-07T08:51:31.253Z,99495.78
2023-03-07T08:54:00.721Z,99490.28
2023-03-07T08:56:30.366Z,99509.38
2023-03-07T08:58:59.308Z,99501.13
2023-03-07T09:01:28.558Z,99504.22
2023-03-07T09:03:57.824Z,99511.13
2023-03-07T09:06:28.737Z,99505.22
2023-03-07T09:08:58.892Z,99499.38
2023-03-07T09:11:29.004Z,99500.59
2023-03-07T09:13:58.589Z,99509.03
2023-03-07T09:16:27.622Z,99504.03
2023-03-07T09:18:56.606Z,99503.19
2023-03-07T09:21:30.822Z,99496.84
2023-03-07T09:23:59.959Z,99507.25
2023-03-07T09:26:28.816Z,99508.84
2023-03-07T09:29:00.039Z,99515.78
2023-03-07T09:31:28.359Z,99511.84
2023-03-07T09:33:58.566Z,99520.41
2023-03-07T09:36:28.964Z,99521.13
2023-03-07T09:38:58.337Z,99521.25
2023-03-07T09:41:54.675Z,99528.19
2023-03-07T09:44:39.065Z,99529.44
2023-03-07T09:48:00.242Z,99530.88
2023-03-07T09:50:37.279Z,99525.69
2023-03-07T09:53:14.404Z,99530.53
2023-03-07T09:55:44.365Z,99529.00
2023-03-07T09:58:17.546Z,99534.84
2023-03-07T10:00:47.554Z,99532.47
2023-03-07T10:03:28.767Z,99535.50
2023-03-07T10:06:01.409Z,99537.75
2023-03-07T10:08:35.052Z,99539.69
2023-03-07T10:11:18.533Z,99541.28
2023-03-07T10:14:01.116Z,99539.78
2023-03-07T10:16:37.781Z,99538.28
2023-03-07T10:19:16.020Z,99547.25
2023-03-07T10:21:53.595Z,99547.34
2023-03-07T10:24:52.527Z,99542.09
2023-03-07T10:27:26.953Z,99546.25
2023-03-07T10:29:57.665Z,99543.28
2023-03-07T10:32:34.126Z,99551.13
2023-03-07T10:35:17.150Z,99543.09
2023-03-07T10:37:53.685Z,99541.41
2023-03-07T10:40:27.655Z,99546.16
2023-03-07T10:42:58.359Z,99540.75
2023-03-07T10:45:31.511Z,99536.81
2023-03-07T10:48:01.310Z,99536.84
2023-03-07T10:50:39.929Z,99534.25
2023-03-07T10:53:21.650Z,99529.94
2023-03-07T10:55:53.949Z,99525.75
2023-03-07T10:58:25.029Z,99521.25
2023-03-07T11:01:20.331Z,99520.44
2023-03-07T11:03:55.428Z,99521.50
2023-03-07T11:06:34.919Z,99512.91
2023-03-07T11:09:17.287Z,99517.00
2023-03-07T11:11:56.418Z,99521.75
2023-03-07T11:14:26.263Z,99518.31
2023-03-07T11:16:57.591Z,99518.97
2023-03-07T11:19:42.272Z,99516.28
2023-03-07T11:22:25.007Z,99520.03
2023-03-07T11:25:01.571Z,99527.50
2023-03-07T11:27:40.650Z,99555.47
2023-03-07T11:30:19.773Z,99568.88
2023-03-07T11:33:09.396Z,99556.59
2023-03-07T11:36:00.325Z,99546.97
2023-03-07T11:38:37.328Z,99537.22
2023-03-07T11:41:12.184Z,99544.47
2023-03-07T11:44:00.181Z,99543.84
2023-03-07T11:46:40.192Z,99554.66
2023-03-07T11:49:27.404Z,99548.41
2023-03-07T11:52:10.428Z,99543.97
2023-03-07T11:54:50.686Z,99546.47
2023-03-07T11:57:31.734Z,99544.81
2023-03-07T12:00:21.341Z,99547.41
2023-03-07T12:03:20.006Z,99549.69
2023-03-07T12:06:07.898Z,99544.34
2023-03-07T12:08:52.465Z,99537.25
2023-03-07T12:11:47.417Z,99531.56
2023-03-07T12:14:24.555Z,99528.44
2023-03-07T12:17:07.939Z,99530.38
2023-03-07T12:19:55.377Z,99521.13
2023-03-07T12:22:29.500Z,99523.16
2023-03-07T12:25:09.854Z,99520.47
2023-03-07T12:27:43.453Z,99522.47
2023-03-07T12:30:20.100Z,99536.69
2023-03-07T12:32:51.887Z,99533.13
2023-03-07T12:35:28.876Z,99519.94
2023-03-07T12:38:06.845Z,99526.53
2023-03-07T12:40:42.017Z,99530.25
2023-03-07T12:43:21.041Z,99523.09
2023-03-07T12:45:57.178Z,99525.41
2023-03-07T12:48:39.711Z,99522.81
2023-03-07T12:51:18.221Z,99524.97
2023-03-07T12:53:51.189Z,99527.94
2023-03-07T12:56:22.692Z,99527.13
2023-03-07T12:58:56.154Z,99537.91
2023-03-07T13:01:29.061Z,99529.53
2023-03-07T13:04:08.542Z,99542.78
2023-03-07T13:06:42.056Z,99542.13
2023-03-07T13:09:19.592Z,99553.78
2023-03-07T13:12:25.544Z,99560.28
2023-03-07T13:14:55.150Z,99565.38
2023-03-07T13:18:01.901Z,99554.00
2023-03-07T13:20:44.748Z,99559.38
2023-03-07T13:23:28.569Z,99552.41
2023-03-07T13:26:13.472Z,99555.53
2023-03-07T13:28:52.940Z,99570.06
2023-03-07T13:31:39.256Z,99561.06
2023-03-07T13:34:46.869Z,99564.97
2023-03-07T13:37:57.205Z,99560.13
2023-03-07T13:40:58.611Z,99560.84
2023-03-07T13:43:58.845Z,99570.13
2023-03-07T13:47:01.678Z,99575.53
2023-03-07T13:49:48.759Z,99573.66
2023-03-07T13:52:40.104Z,99572.00
2023-03-07T13:55:46.456Z,99577.06
2023-03-07T13:58:28.464Z,99578.72
2023-03-07T14:01:01.121Z,99580.25
2023-03-07T14:03:34.829Z,99577.22
2023-03-07T14:06:12.340Z,99580.13
2023-03-07T14:08:42.147Z,99576.84
2023-03-07T14:11:23.253Z,99583.56
2023-03-07T14:14:21.538Z,99579.81
2023-03-07T14:17:05.324Z,99586.22
2023-03-07T14:19:52.714Z,99592.50
2023-03-07T14:22:35.253Z,99590.50
2023-03-07T14:25:39.213Z,99594.34
2023-03-07T14:28:22.344Z,99591.34
2023-03-07T14:30:58.665Z,99601.84
2023-03-07T14:33:33.731Z,99608.97
2023-03-07T14:36:03.806Z,99610.53
2023-03-07T14:38:34.337Z,99606.47
2023-03-07T14:41:29.465Z,99611.34
2023-03-07T14:44:09.115Z,99606.28
2023-03-07T14:46:59.527Z,99623.00
2023-03-07T14:49:36.914Z,99607.81
2023-03-07T14:52:06.778Z,99609.16
2023-03-07T14:54:38.530Z,99607.66
2023-03-07T14:57:22.993Z,99611.72
2023-03-07T15:00:13.544Z,99615.09
2023-03-07T15:02:48.808Z,99619.81
2023-03-07T15:05:20.733Z,99627.94
2023-03-07T15:07:49.466Z,99633.81
2023-03-07T15:10:25.224Z,99636.84
2023-03-07T15:12:57.905Z,99645.25
2023-03-07T15:15:34.043Z,99656.75
2023-03-07T15:18:08.031Z,99670.88
2023-03-07T15:20:37.742Z,99662.06
2023-03-07T15:23:09.551Z,99679.94
2023-03-07T15:25:40.013Z,99682.34
2023-03-07T15:28:19.804Z,99684.22
2023-03-07T15:30:55.402Z,99675.63
2023-03-07T15:33:25.934Z,99661.44
2023-03-07T15:36:19.955Z,99658.78
2023-03-07T15:38:50.653Z,99660.00
2023-03-07T15:41:34.970Z,99655.28
2023-03-07T15:44:23.304Z,99651.59
2023-03-07T15:46:56.325Z,99658.03
2023-03-07T15:49:27.392Z,99652.63
2023-03-07T15:52:02.561Z,99651.44
2023-03-07T15:54:36.321Z,99644.00
2023-03-07T15:57:10.494Z,99642.31
2023-03-07T15:59:45.637Z,99646.38
2023-03-07T16:02:37.829Z,99647.56
2023-03-07T16:05:10.079Z,99647.88
2023-03-07T16:07:39.336Z,99650.09
2023-03-07T16:10:10.240Z,99652.44
2023-03-07T16:12:46.399Z,99650.25
2023-03-07T16:15:17.667Z,99653.25
2023-03-07T16:17:53.398Z,99652.03
2023-03-07T16:20:24.971Z,99652.41
2023-03-07T16:22:55.487Z,99658.78
2023-03-07T16:25:28.469Z,99664.59
2023-03-07T16:28:00.370Z,99652.75
2023-03-07T16:30:34.015Z,99657.06
2023-03-07T16:33:05.264Z,99653.69
2023-03-07T16:35:35.813Z,99664.16
2023-03-07T16:38:07.266Z,99655.50
2023-03-07T16:40:38.449Z,99667.47
2023-03-07T16:43:32.580Z,99665.63
2023-03-07T16:46:05.623Z,99668.72
2023-03-07T16:48:37.715Z,99672.88
2023-03-07T16:51:08.963Z,99674.63
2023-03-07T16:53:38.188Z,99672.06
2023-03-07T16:56:11.570Z,99674.94
2023-03-07T16:58:43.504Z,99681.72
2023-03-07T17:01:17.816Z,99679.78
2023-03-07T17:03:51.334Z,99684.06
2023-03-07T17:06:25.427Z,99695.50
2023-03-07T17:08:56.747Z,99698.34
2023-03-07T17:11:29.633Z,99699.75
2023-03-07T17:14:00.905Z,99692.91
2023-03-07T17:16:33.215Z,99703.09
2023-03-07T17:19:04.777Z,99716.22
2023-03-07T17:21:34.434Z,99718.66
2023-03-07T17:24:03.017Z,99711.59
2023-03-07T17:26:34.358Z,99714.94
2023-03-07T17:29:08.913Z,99720.03
2023-03-07T17:31:39.645Z,99720.94
2023-03-07T17:34:19.477Z,99715.88
2023-03-07T17:36:48.541Z,99722.84
2023-03-07T17:39:17.929Z,99728.28
2023-03-07T17:41:47.171Z,99728.91
2023-03-07T17:44:17.909Z,99739.91
2023-03-07T17:46:48.004Z,99742.19
2023-03-07T17:49:19.512Z,99752.88
2023-03-07T17:51:49.491Z,99760.88
2023-03-07T17:54:25.746Z,99766.22
2023-03-07T17:57:04.728Z,99779.16
2023-03-07T17:59:35.301Z,99787.28
2023-03-07T18:02:05.896Z,99786.81
2023-03-07T18:04:36.577Z,99795.13
2023-03-07T18:07:06.611Z,99799.69
2023-03-07T18:09:35.359Z,99798.16
2023-03-07T18:12:05.489Z,99790.19
2023-03-07T18:14:35.942Z,99789.78
2023-03-07T18:17:06.857Z,99783.13
2023-03-07T18:19:39.386Z,99785.13
2023-03-07T18:22:08.946Z,99781.44
2023-03-07T18:24:37.367Z,99784.47
2023-03-07T18:27:09.040Z,99785.50
2023-03-07T18:29:39.493Z,99792.50
2023-03-07T18:32:09.470Z,99792.16
2023-03-07T18:34:41.743Z,99790.84
2023-03-07T18:37:11.574Z,99793.53
2023-03-07T18:39:42.028Z,99789.84
2023-03-07T18:42:12.439Z,99795.59
2023-03-07T18:44:41.591Z,99795.56
2023-03-07T18:47:10.966Z,99791.50
2023-03-07T18:49:41.654Z,99786.34
2023-03-07T18:52:10.581Z,99796.56
2023-03-07T18:54:40.181Z,99809.56
2023-03-07T18:57:09.911Z,99816.31
2023-03-07T18:59:38.064Z,99824.00
2023-03-07T19:02:07.560Z,99821.47
2023-03-07T19:04:37.268Z,99826.06
2023-03-07T19:07:08.385Z,99830.25
2023-03-07T19:09:38.271Z,99849.13
2023-03-07T19:12:08.409Z,99840.31
2023-03-07T19:14:38.012Z,99830.50
2023-03-07T19:17:07.711Z,99822.16
2023-03-07T19:19:36.985Z,99823.91
2023-03-07T19:22:07.988Z,99811.88
2023-03-07T19:24:37.480Z,99807.84
2023-03-07T19:27:07.054Z,99802.50
2023-03-07T19:29:36.921Z,99805.06
2023-03-07T19:32:08.072Z,99805.84
2023-03-07T19:34:38.820Z,99798.34
2023-03-07T19:37:10.401Z,99804.66
2023-03-07T19:39:40.142Z,99811.25
2023-03-07T19:42:08.893Z,99802.56
2023-03-07T19:44:38.298Z,99808.69
2023-03-07T19:47:07.159Z,99804.22
2023-03-07T19:49:36.398Z,99804.22
2023-03-07T19:52:06.049Z,99814.69
2023-03-07T19:54:36.151Z,99814.69
2023-03-07T19:57:09.341Z,99823.13
2023-03-07T19:59:38.625Z,99819.97
2023-03-07T20:02:09.851Z,99820.47
2023-03-07T20:04:38.642Z,99828.88
2023-03-07T20:07:09.702Z,99835.97
2023-03-07T20:09:40.086Z,99839.25
2023-03-07T20:12:11.254Z,99840.34
2023-03-07T20:14:44.729Z,99836.66
2023-03-07T20:17:14.767Z,99838.78
2023-03-07T20:19:44.667Z,99834.38
2023-03-07T20:22:13.504Z,99834.97
2023-03-07T20:24:44.730Z,99830.88
2023-03-07T20:27:20.350Z,99839.81
2023-03-07T20:29:50.478Z,99839.81
2023-03-07T20:32:20.792Z,99840.78
2023-03-07T20:34:54.123Z,99833.81
2023-03-07T20:37:24.616Z,99829.88
2023-03-07T20:39:57.556Z,99833.00
2023-03-07T20:42:27.212Z,99839.22
2023-03-07T20:44:56.789Z,99837.41
2023-03-07T20:47:25.394Z,99843.44
2023-03-07T20:49:55.595Z,99852.72
2023-03-07T20:52:25.608Z,99843.25
2023-03-07T20:54:56.140Z,99850.59
2023-03-07T20:57:25.390Z,99846.34
2023-03-07T20:59:54.469Z,99856.69
2023-03-07T21:02:23.547Z,99850.44
2023-03-07T21:04:52.222Z,99852.72
2023-03-07T21:07:21.428Z,99855.13
2023-03-07T21:09:51.072Z,99856.00
2023-03-07T21:12:21.535Z,99856.84
2023-03-07T21:14:50.242Z,99856.97
2023-03-07T21:17:18.839Z,99864.06
2023-03-07T21:19:47.253Z,99858.81
2023-03-07T21:22:16.795Z,99856.28
2023-03-07T21:24:45.449Z,99869.16
2023-03-07T21:27:14.197Z,99878.31
2023-03-07T21:29:43.989Z,99859.78
2023-03-07T21:32:13.030Z,99861.94
2023-03-07T21:34:41.628Z,99868.00
2023-03-07T21:37:11.486Z,99874.09
2023-03-07T21:39:40.420Z,99873.91
2023-03-07T21:42:10.131Z,99872.13
2023-03-07T21:44:38.748Z,99874.06
2023-03-07T21:47:10.094Z,99868.59
2023-03-07T21:49:38.344Z,99871.16
2023-03-07T21:52:09.151Z,99860.81
2023-03-07T21:54:38.794Z,99866.63
2023-03-07T21:57:08.752Z,99881.06
2023-03-07T21:59:38.134Z,99874.69
2023-03-07T22:02:09.396Z,99877.09
2023-03-07T22:04:38.263Z,99878.22
2023-03-07T22:07:08.470Z,99875.97
2023-03-07T22:09:38.197Z,99879.63
2023-03-07T22:12:09.506Z,99886.56
2023-03-07T22:14:39.388Z,99885.84
2023-03-07T22:17:12.213Z,99888.13
2023-03-07T22:19:41.445Z,99896.03
2023-03-07T22:22:11.654Z,99890.13
2023-03-07T22:24:43.680Z,99892.38
2023-03-07T22:27:12.039Z,99888.81
2023-03-07T22:29:40.502Z,99893.38
2023-03-07T22:32:10.588Z,99888.81
2023-03-07T22:34:40.359Z,99884.44
2023-03-07T22:37:10.357Z,99887.41
2023-03-07T22:39:40.027Z,99888.69
2023-03-07T22:42:09.341Z,99889.25
2023-03-07T22:44:37.612Z,99893.94
2023-03-07T22:47:06.704Z,99889.69
2023-03-07T22:49:36.480Z,99901.72
2023-03-07T22:52:05.648Z,99907.66
2023-03-07T22:54:39.203Z,99908.53
2023-03-07T22:57:07.553Z,99908.81
2023-03-07T22:59:35.854Z,99905.69
2023-03-07T23:02:05.249Z,99903.56
2023-03-07T23:04:33.833Z,99897.03
2023-03-07T23:07:04.748Z,99905.78
2023-03-07T23:09:34.037Z,99913.16
2023-03-07T23:12:02.379Z,99898.59
2023-03-07T23:14:30.871Z,99897.88
2023-03-07T23:16:58.932Z,99896.47
2023-03-07T23:19:27.533Z,99903.00
2023-03-07T23:21:56.629Z,99900.16
2023-03-07T23:24:26.093Z,99897.63
2023-03-07T23:26:54.569Z,99901.97
2023-03-07T23:29:23.157Z,99900.31
2023-03-07T23:31:52.446Z,99899.84
2023-03-07T23:34:22.549Z,99902.28
2023-03-07T23:36:51.564Z,99894.22
2023-03-07T23:39:20.519Z,99908.25
2023-03-07T23:41:50.105Z,99905.13
2023-03-07T23:44:18.167Z,99899.88
2023-03-07T23:46:47.062Z,99908.50
2023-03-07T23:49:15.420Z,99911.19
2023-03-07T23:51:44.675Z,99912.47
2023-03-07T23:54:12.798Z,99911.66
2023-03-07T23:56:41.015Z,99908.22
2023-03-07T23:59:10.703Z,99903.13
